createdAt,value
2023-05-12T00:01:00.654Z,12.43
2023-05-12T00:04:04.444Z,13.27
2023-05-12T00:07:08.988Z,13.30
2023-05-12T00:10:12.905Z,12.83
2023-05-12T00:13:18.702Z,13.93
2023-05-12T00:16:22.334Z,16.00
2023-05-12T00:19:25.905Z,15.47
2023-05-12T00:22:29.423Z,17.67
2023-05-12T00:25:33.011Z,17.13
2023-05-12T00:28:38.182Z,16.90
2023-05-12T00:31:41.857Z,16.73
2023-05-12T00:34:45.384Z,17.50
2023-05-12T00:37:48.941Z,17.63
2023-05-12T00:40:52.592Z,19.00
2023-05-12T00:43:57.631Z,18.37
2023-05-12T00:47:01.663Z,16.80
2023-05-12T00:50:08.482Z,19.53
2023-05-12T00:53:13.282Z,19.47
2023-05-12T00:56:18.393Z,22.80
2023-05-12T00:59:23.365Z,21.00
2023-05-12T01:02:26.962Z,20.30
2023-05-12T01:05:40.510Z,19.90
2023-05-12T01:08:45.168Z,20.43
2023-05-12T01:11:48.810Z,24.63
2023-05-12T01:14:56.112Z,22.73
2023-05-12T01:18:04.715Z,23.13
2023-05-12T01:21:09.233Z,24.93
2023-05-12T01:24:17.375Z,28.47
2023-05-12T01:27:25.483Z,27.20
2023-05-12T01:30:30.581Z,26.70
2023-05-12T01:33:35.733Z,31.67
2023-05-12T01:36:39.194Z,33.90
2023-05-12T01:39:42.741Z,32.37
2023-05-12T01:42:47.688Z,32.93
2023-05-12T01:45:51.175Z,35.10
2023-05-12T01:48:54.665Z,32.40
2023-05-12T01:51:58.158Z,37.77
2023-05-12T01:55:01.628Z,38.43
2023-05-12T01:58:06.485Z,41.73
2023-05-12T02:01:09.914Z,46.73
2023-05-12T02:04:13.740Z,41.87
2023-05-12T02:07:17.515Z,41.10
2023-05-12T02:10:21.293Z,38.80
2023-05-12T02:13:26.530Z,41.70
2023-05-12T02:16:30.140Z,39.93
2023-05-12T02:19:33.804Z,38.67
2023-05-12T02:22:37.311Z,40.60
2023-05-12T02:25:40.879Z,37.53
2023-05-12T02:28:47.027Z,40.90
2023-05-12T02:31:50.704Z,40.47
2023-05-12T02:34:54.299Z,35.97
2023-05-12T02:37:58.043Z,37.40
2023-05-12T02:41:01.715Z,36.47
2023-05-12T02:44:07.003Z,37.53
2023-05-12T02:47:10.557Z,39.87
2023-05-12T02:50:14.048Z,41.23
2023-05-12T02:53:17.483Z,43.40
2023-05-12T02:56:21.467Z,41.13
2023-05-12T02:59:26.401Z,39.87
2023-05-12T03:02:29.959Z,42.57
2023-05-12T03:05:33.532Z,43.00
2023-05-12T03:08:37.386Z,42.17
2023-05-12T03:11:40.945Z,45.07
2023-05-12T03:14:45.900Z,43.93
2023-05-12T03:17:49.417Z,41.97
2023-05-12T03:20:53.001Z,42.43
2023-05-12T03:23:56.626Z,40.70
2023-05-12T03:27:00.319Z,41.80
2023-05-12T03:30:06.138Z,44.90
2023-05-12T03:33:09.733Z,43.63
2023-05-12T03:36:13.179Z,40.53
2023-05-12T03:39:16.898Z,42.50
2023-05-12T03:42:20.348Z,39.00
2023-05-12T03:45:25.318Z,37.10
2023-05-12T03:48:29.067Z,37.83
2023-05-12T03:51:32.581Z,39.63
2023-05-12T03:54:37.825Z,41.13
2023-05-12T03:57:41.549Z,44.03
2023-05-12T04:00:46.790Z,40.50
2023-05-12T04:03:50.643Z,39.33
2023-05-12T04:06:54.204Z,39.10
2023-05-12T04:09:57.942Z,39.23
2023-05-12T04:13:01.441Z,43.40
2023-05-12T04:16:07.508Z,42.03
2023-05-12T04:19:11.109Z,39.03
2023-05-12T04:22:15.164Z,38.37
2023-05-12T04:25:18.839Z,37.23
2023-05-12T04:28:22.333Z,37.60
2023-05-12T04:31:27.316Z,37.00
2023-05-12T04:34:30.935Z,39.00
2023-05-12T04:37:34.485Z,36.80
2023-05-12T04:40:37.964Z,40.90
2023-05-12T04:46:49.845Z,33.07
2023-05-12T04:49:53.369Z,32.60
2023-05-12T04:52:56.993Z,34.27
2023-05-12T04:56:00.730Z,31.10
2023-05-12T04:59:05.482Z,31.97
2023-05-12T05:02:10.691Z,31.30
2023-05-12T05:05:14.195Z,33.27
2023-05-12T05:08:18.505Z,33.10
2023-05-12T05:11:22.588Z,31.77
2023-05-12T05:14:26.225Z,32.77
2023-05-12T05:17:31.359Z,30.40
2023-05-12T05:20:35.489Z,27.53
2023-05-12T05:23:39.037Z,28.00
2023-05-12T05:26:42.573Z,27.73
2023-05-12T05:29:46.078Z,23.77
2023-05-12T05:32:51.051Z,23.90
2023-05-12T05:35:54.839Z,26.53
2023-05-12T05:38:58.361Z,25.30
2023-05-12T05:42:01.805Z,24.47
2023-05-12T05:45:06.249Z,19.70
2023-05-12T05:48:11.204Z,18.20
2023-05-12T05:51:15.120Z,20.37
2023-05-12T05:54:18.649Z,17.83
2023-05-12T05:57:22.532Z,18.27
2023-05-12T06:00:26.268Z,18.20
2023-05-12T06:03:31.681Z,19.43
2023-05-12T06:06:35.279Z,17.00
2023-05-12T06:09:38.779Z,20.20
2023-05-12T06:12:43.299Z,18.27
2023-05-12T06:15:47.005Z,17.80
2023-05-12T06:18:51.913Z,16.60
2023-05-12T06:21:55.556Z,14.93
2023-05-12T06:24:59.133Z,15.63
2023-05-12T06:28:02.682Z,16.80
2023-05-12T06:31:08.876Z,13.00
2023-05-12T06:34:13.727Z,12.87
2023-05-12T06:37:17.290Z,12.17
2023-05-12T06:40:21.607Z,11.43
2023-05-12T06:43:25.189Z,9.50
2023-05-12T06:46:28.770Z,9.20
2023-05-12T06:49:35.727Z,9.80
2023-05-12T06:52:39.393Z,9.17
2023-05-12T06:55:43.921Z,9.93
2023-05-12T06:58:48.074Z,9.63
2023-05-12T07:01:51.656Z,9.63
2023-05-12T07:04:56.620Z,10.27
2023-05-12T07:08:00.161Z,9.97
2023-05-12T07:11:03.729Z,9.07
2023-05-12T07:14:07.430Z,8.10
2023-05-12T07:17:11.147Z,8.43
2023-05-12T07:20:16.253Z,8.13
2023-05-12T07:23:19.788Z,8.00
2023-05-12T07:26:24.322Z,7.53
2023-05-12T07:29:27.844Z,8.23
2023-05-12T07:32:31.458Z,7.53
2023-05-12T07:35:36.386Z,8.17
2023-05-12T07:38:41.200Z,7.17
2023-05-12T07:41:44.739Z,7.47
2023-05-12T07:44:48.259Z,7.43
2023-05-12T07:47:52.429Z,7.57
2023-05-12T07:50:57.483Z,8.80
2023-05-12T07:54:01.624Z,8.33
2023-05-12T07:57:05.722Z,7.20
2023-05-12T08:00:12.440Z,6.07
2023-05-12T08:03:16.436Z,7.13
2023-05-12T08:06:21.420Z,7.83
2023-05-12T08:09:24.880Z,7.00
2023-05-12T08:12:28.539Z,6.33
2023-05-12T08:15:38.769Z,7.07
2023-05-12T08:18:42.374Z,6.80
2023-05-12T08:21:47.310Z,7.47
2023-05-12T08:24:50.887Z,7.33
2023-05-12T08:27:54.515Z,8.80
2023-05-12T08:30:58.403Z,7.93
2023-05-12T08:34:10.543Z,6.63
2023-05-12T08:37:16.322Z,5.90
2023-05-12T08:40:24.245Z,7.40
2023-05-12T08:43:35.026Z,5.73
2023-05-12T08:46:39.549Z,6.47
2023-05-12T08:49:46.415Z,7.50
2023-05-12T08:52:52.256Z,6.13
2023-05-12T08:57:09.561Z,7.83
2023-05-12T08:59:22.109Z,5.57
2023-05-12T09:02:28.108Z,6.00
2023-05-12T09:05:36.013Z,5.53
2023-05-12T09:08:42.499Z,6.57
2023-05-12T09:11:49.577Z,5.70
2023-05-12T09:15:05.036Z,5.97
2023-05-12T09:18:08.713Z,5.43
2023-05-12T09:21:13.245Z,6.77
2023-05-12T09:24:18.925Z,5.10
2023-05-12T09:27:27.121Z,6.73
2023-05-12T09:30:32.309Z,5.67
2023-05-12T09:33:36.969Z,6.57
2023-05-12T09:36:40.487Z,7.57
2023-05-12T09:39:45.983Z,7.50
2023-05-12T09:42:49.552Z,5.57
2023-05-12T09:45:53.288Z,9.43
2023-05-12T09:48:58.091Z,4.47
2023-05-12T09:52:01.652Z,4.63
2023-05-12T09:55:13.964Z,4.40
2023-05-12T09:58:19.775Z,5.53
2023-05-12T10:01:24.082Z,5.87
2023-05-12T10:04:29.632Z,5.37
2023-05-12T10:07:35.652Z,4.70
2023-05-12T10:10:41.882Z,5.30
2023-05-12T10:13:45.537Z,6.47
2023-05-12T10:16:51.654Z,5.10
2023-05-12T10:19:56.898Z,3.87
2023-05-12T10:23:03.188Z,4.90
2023-05-12T10:26:08.889Z,5.87
2023-05-12T10:29:14.089Z,6.00
2023-05-12T10:32:17.858Z,6.77
2023-05-12T10:35:21.709Z,6.20
2023-05-12T10:38:25.501Z,6.83
2023-05-12T10:41:35.360Z,7.53
2023-05-12T10:44:52.053Z,5.33
2023-05-12T10:48:08.396Z,9.47
2023-05-12T10:51:12.437Z,5.07
2023-05-12T10:54:22.951Z,5.13
2023-05-12T10:57:28.964Z,5.53
2023-05-12T11:00:34.566Z,4.20
2023-05-12T11:03:38.819Z,4.00
2023-05-12T11:06:46.979Z,6.37
2023-05-12T11:09:58.312Z,4.67
2023-05-12T11:13:04.791Z,4.80
2023-05-12T11:16:13.480Z,3.87
2023-05-12T11:19:20.381Z,4.30
2023-05-12T11:22:25.225Z,3.83
2023-05-12T11:25:29.494Z,4.00
2023-05-12T11:28:42.517Z,5.47
2023-05-12T11:31:50.091Z,3.80
2023-05-12T11:34:53.838Z,3.67
2023-05-12T11:37:57.398Z,3.43
2023-05-12T11:41:01.312Z,3.97
2023-05-12T11:44:17.177Z,3.43
2023-05-12T11:47:21.804Z,3.30
2023-05-12T11:50:26.210Z,3.67
2023-05-12T11:53:29.930Z,4.77
2023-05-12T11:56:33.454Z,6.13
2023-05-12T11:59:38.401Z,4.10
2023-05-12T12:02:43.441Z,4.40
2023-05-12T12:05:59.727Z,4.57
2023-05-12T12:09:03.432Z,4.40
2023-05-12T12:12:10.062Z,3.07
2023-05-12T12:15:31.151Z,4.80
2023-05-12T12:18:34.674Z,3.30
2023-05-12T12:21:38.416Z,2.60
2023-05-12T12:24:41.961Z,5.93
2023-05-12T12:27:45.586Z,3.17
2023-05-12T12:30:50.624Z,3.37
2023-05-12T12:33:54.353Z,3.13
2023-05-12T12:36:58.054Z,3.33
2023-05-12T12:40:07.994Z,3.33
2023-05-12T12:43:11.584Z,3.73
2023-05-12T12:46:16.564Z,4.93
2023-05-12T12:49:20.166Z,3.03
2023-05-12T12:52:23.833Z,3.17
2023-05-12T12:55:27.494Z,6.00
2023-05-12T12:58:31.916Z,2.67
2023-05-12T13:01:36.986Z,3.10
2023-05-12T13:04:40.836Z,4.00
2023-05-12T13:07:44.397Z,2.40
2023-05-12T13:10:48.113Z,3.47
2023-05-12T13:13:51.883Z,3.93
2023-05-12T13:16:56.849Z,2.70
2023-05-12T13:20:00.418Z,2.70
2023-05-12T13:23:04.313Z,4.87
2023-05-12T13:26:08.166Z,3.90
2023-05-12T13:29:11.792Z,4.20
2023-05-12T13:32:17.522Z,2.77
2023-05-12T13:35:21.775Z,3.90
2023-05-12T13:38:26.490Z,4.80
2023-05-12T13:41:29.992Z,4.00
2023-05-12T13:44:33.620Z,4.53
2023-05-12T13:47:38.673Z,2.47
2023-05-12T13:50:42.457Z,5.43
2023-05-12T13:53:46.380Z,4.23
2023-05-12T13:56:50.047Z,3.17
2023-05-12T13:59:54.960Z,3.40
2023-05-12T14:03:00.793Z,6.67
2023-05-12T14:06:04.554Z,5.70
2023-05-12T14:09:08.145Z,4.47
2023-05-12T14:12:11.962Z,4.97
2023-05-12T14:15:29.600Z,4.20
2023-05-12T14:18:37.681Z,3.53
2023-05-12T14:21:43.810Z,3.60
2023-05-12T14:24:47.424Z,3.03
2023-05-12T14:27:51.070Z,4.03
2023-05-12T14:30:54.641Z,5.00
2023-05-12T14:33:59.619Z,3.20
2023-05-12T14:37:03.137Z,5.33
2023-05-12T14:40:08.601Z,3.30
2023-05-12T14:43:12.060Z,3.90
2023-05-12T14:46:16.116Z,5.53
2023-05-12T14:49:22.353Z,6.17
2023-05-12T14:52:26.000Z,4.03
2023-05-12T14:55:29.928Z,4.97
2023-05-12T14:58:33.448Z,3.47
2023-05-12T15:01:37.144Z,5.00
2023-05-12T15:04:42.324Z,3.57
2023-05-12T15:07:45.837Z,3.23
2023-05-12T15:10:49.488Z,2.90
2023-05-12T15:13:52.791Z,2.43
2023-05-12T15:16:56.429Z,4.87
2023-05-12T15:20:01.437Z,3.67
2023-05-12T15:23:05.162Z,5.90
2023-05-12T15:26:27.242Z,5.93
2023-05-12T15:29:32.935Z,5.30
2023-05-12T15:32:36.413Z,2.80
2023-05-12T15:35:41.747Z,4.50
2023-05-12T15:38:47.014Z,4.80
2023-05-12T15:41:50.785Z,4.00
2023-05-12T15:44:54.333Z,2.60
2023-05-12T15:47:58.032Z,4.57
2023-05-12T15:51:05.642Z,4.20
2023-05-12T15:54:09.724Z,2.93
2023-05-12T15:57:13.724Z,3.03
2023-05-12T16:00:19.565Z,3.20
2023-05-12T16:03:23.783Z,2.50
2023-05-12T16:06:29.284Z,2.77
2023-05-12T16:09:32.991Z,5.03
2023-05-12T16:12:36.528Z,3.53
2023-05-12T16:15:39.998Z,5.67
2023-05-12T16:18:44.018Z,2.40
2023-05-12T16:21:48.945Z,4.13
2023-05-12T16:24:53.802Z,2.70
2023-05-12T16:27:57.332Z,4.77
2023-05-12T16:31:01.331Z,6.20
2023-05-12T16:34:04.999Z,4.70
2023-05-12T16:37:10.048Z,2.80
2023-05-12T16:40:14.059Z,2.37
2023-05-12T16:43:17.713Z,2.77
2023-05-12T16:46:21.373Z,2.67
2023-05-12T16:49:25.003Z,6.03
2023-05-12T16:52:30.088Z,3.10
2023-05-12T16:55:33.734Z,3.20
2023-05-12T16:58:37.569Z,3.80
2023-05-12T17:01:41.300Z,9.03
2023-05-12T17:04:45.159Z,3.90
2023-05-12T17:07:50.151Z,4.87
2023-05-12T17:10:53.701Z,2.47
2023-05-12T17:13:57.299Z,2.93
2023-05-12T17:17:00.857Z,5.47
2023-05-12T17:20:06.098Z,3.63
2023-05-12T17:23:22.330Z,2.40
2023-05-12T17:26:27.745Z,2.77
2023-05-12T17:29:31.296Z,4.27
2023-05-12T17:32:34.921Z,5.30
2023-05-12T17:35:38.452Z,1.97
2023-05-12T17:38:43.914Z,4.10
2023-05-12T17:41:47.787Z,4.17
2023-05-12T17:44:51.614Z,4.30
2023-05-12T17:47:55.526Z,2.73
2023-05-12T17:50:59.056Z,3.73
2023-05-12T17:54:04.505Z,4.73
2023-05-12T17:57:08.234Z,3.20
2023-05-12T18:00:13.537Z,2.27
2023-05-12T18:03:23.180Z,3.40
2023-05-12T18:06:27.106Z,3.57
2023-05-12T18:09:32.148Z,5.07
2023-05-12T18:12:35.859Z,2.67
2023-05-12T18:15:39.515Z,4.00
2023-05-12T18:18:43.063Z,3.97
2023-05-12T18:21:46.905Z,4.63
2023-05-12T18:24:52.275Z,3.40
2023-05-12T18:27:55.752Z,3.13
2023-05-12T18:31:03.018Z,5.63
2023-05-12T18:34:16.825Z,5.13
2023-05-12T18:37:20.435Z,4.47
2023-05-12T18:40:25.458Z,5.00
2023-05-12T18:43:29.168Z,7.40
2023-05-12T18:46:32.899Z,3.97
2023-05-12T18:49:36.708Z,4.60
2023-05-12T18:52:40.667Z,4.53
2023-05-12T18:55:45.790Z,3.40
2023-05-12T18:58:49.350Z,3.40
2023-05-12T19:01:53.038Z,5.07
2023-05-12T19:04:56.926Z,4.50
2023-05-12T19:08:00.942Z,4.80
2023-05-12T19:11:06.452Z,5.43
2023-05-12T19:14:10.220Z,7.83
2023-05-12T19:17:13.728Z,5.83
2023-05-12T19:20:17.510Z,5.70
2023-05-12T19:23:21.768Z,9.53
2023-05-12T19:26:27.177Z,4.30
2023-05-12T19:29:30.995Z,7.40
2023-05-12T19:32:34.644Z,5.43
2023-05-12T19:35:38.238Z,4.63
2023-05-12T19:38:43.606Z,4.93
2023-05-12T19:41:48.792Z,6.87
2023-05-12T19:44:52.397Z,4.77
2023-05-12T19:47:57.991Z,4.53
2023-05-12T19:51:01.652Z,5.27
2023-05-12T19:54:06.498Z,7.57
2023-05-12T19:57:11.768Z,7.10
2023-05-12T20:00:16.269Z,5.63
2023-05-12T20:03:20.132Z,4.90
2023-05-12T20:06:25.015Z,7.40
2023-05-12T20:09:28.587Z,7.17
2023-05-12T20:12:33.464Z,5.23
2023-05-12T20:15:36.998Z,6.80
2023-05-12T20:18:40.634Z,5.23
2023-05-12T20:21:44.387Z,4.23
2023-05-12T20:24:47.875Z,6.53
2023-05-12T20:27:55.563Z,4.73
2023-05-12T20:30:59.064Z,6.97
2023-05-12T20:34:02.974Z,4.47
2023-05-12T20:37:07.106Z,5.70
2023-05-12T20:40:11.891Z,5.90
2023-05-12T20:43:16.794Z,7.13
2023-05-12T20:46:20.399Z,6.73
2023-05-12T20:49:24.084Z,4.83
2023-05-12T20:52:28.985Z,6.83
2023-05-12T20:55:34.584Z,6.23
2023-05-12T20:58:39.550Z,8.47
2023-05-12T21:01:43.110Z,5.43
2023-05-12T21:04:46.686Z,5.33
2023-05-12T21:07:50.333Z,6.80
2023-05-12T21:10:54.584Z,4.57
2023-05-12T21:13:59.908Z,5.67
2023-05-12T21:17:03.505Z,8.17
2023-05-12T21:20:09.548Z,6.20
2023-05-12T21:23:13.775Z,5.57
2023-05-12T21:26:17.224Z,6.70
2023-05-12T21:29:22.152Z,5.50
2023-05-12T21:32:25.692Z,4.63
2023-05-12T21:35:29.355Z,4.93
2023-05-12T21:38:33.206Z,4.50
2023-05-12T21:41:38.452Z,6.37
2023-05-12T21:44:43.430Z,5.43
2023-05-12T21:47:50.403Z,5.40
2023-05-12T21:51:01.134Z,6.47
2023-05-12T21:54:04.965Z,4.90
2023-05-12T21:57:08.410Z,5.80
2023-05-12T22:00:15.123Z,4.23
2023-05-12T22:03:20.413Z,5.30
2023-05-12T22:06:23.968Z,4.77
2023-05-12T22:09:28.755Z,4.67
2023-05-12T22:12:33.976Z,5.83
2023-05-12T22:15:38.921Z,5.60
2023-05-12T22:18:43.540Z,6.87
2023-05-12T22:21:47.158Z,5.37
2023-05-12T22:24:51.900Z,6.20
2023-05-12T22:27:55.897Z,5.40
2023-05-12T22:31:00.829Z,7.60
2023-05-12T22:34:04.564Z,5.97
2023-05-12T22:37:08.058Z,7.07
2023-05-12T22:40:12.015Z,8.90
2023-05-12T22:43:15.561Z,8.20
2023-05-12T22:46:20.500Z,4.47
2023-05-12T22:49:24.214Z,5.97
2023-05-12T22:52:28.264Z,7.07
2023-05-12T22:55:31.975Z,7.90
2023-05-12T22:58:35.643Z,6.77
2023-05-12T23:01:40.726Z,7.67
2023-05-12T23:04:44.482Z,8.37
2023-05-12T23:07:48.191Z,5.87
2023-05-12T23:10:51.796Z,6.73
2023-05-12T23:13:55.418Z,7.80
2023-05-12T23:17:00.481Z,7.63
2023-05-12T23:20:04.584Z,8.13
2023-05-12T23:23:08.189Z,5.77
2023-05-12T23:26:11.793Z,7.37
2023-05-12T23:29:15.335Z,7.97
2023-05-12T23:32:20.754Z,5.33
2023-05-12T23:35:24.977Z,7.03
2023-05-12T23:38:28.510Z,8.00
2023-05-12T23:41:34.007Z,5.57
2023-05-12T23:44:37.602Z,5.10
2023-05-12T23:47:43.346Z,10.33
2023-05-12T23:50:46.906Z,6.53
2023-05-12T23:53:50.650Z,7.87
2023-05-12T23:56:54.101Z,7.77
2023-05-12T23:59:57.589Z,7.63
